sensor_id;sensor_type;location;lat;lon;timestamp;P1;durP1;ratioP1;P2;durP2;ratioP2
15404;SDS011;7801;48.124;11.590;2023-05-20T00:00:10;1.10;;;1.10;;
15404;SDS011;7801;48.124;11.590;2023-05-20T00:02:36;1.73;;;1.20;;
15404;SDS011;7801;48.124;11.590;2023-05-20T00:05:01;1.20;;;1.10;;
15404;SDS011;7801;48.124;11.590;2023-05-20T00:07:27;0.87;;;0.87;;
15404;SDS011;7801;48.124;11.590;2023-05-20T00:09:52;1.07;;;1.07;;
15404;SDS011;7801;48.124;11.590;2023-05-20T00:12:17;1.70;;;1.60;;
15404;SDS011;7801;48.124;11.590;2023-05-20T00:14:43;1.53;;;1.43;;
15404;SDS011;7801;48.124;11.590;2023-05-20T00:17:08;1.03;;;1.03;;
15404;SDS011;7801;48.124;11.590;2023-05-20T00:19:33;1.87;;;1.77;;
15404;SDS011;7801;48.124;11.590;2023-05-20T00:21:59;1.10;;;1.10;;
15404;SDS011;7801;48.124;11.590;2023-05-20T00:24:24;1.33;;;1.33;;
15404;SDS011;7801;48.124;11.590;2023-05-20T00:26:50;1.70;;;1.60;;
15404;SDS011;7801;48.124;11.590;2023-05-20T00:29:16;1.47;;;1.43;;
15404;SDS011;7801;48.124;11.590;2023-05-20T00:31:41;0.90;;;0.90;;
15404;SDS011;7801;48.124;11.590;2023-05-20T00:34:07;1.10;;;1.10;;
15404;SDS011;7801;48.124;11.590;2023-05-20T00:36:33;1.00;;;1.00;;
15404;SDS011;7801;48.124;11.590;2023-05-20T00:38:59;2.63;;;1.00;;
15404;SDS011;7801;48.124;11.590;2023-05-20T00:41:24;3.10;;;2.33;;
15404;SDS011;7801;48.124;11.590;2023-05-20T00:43:54;1.77;;;1.73;;
15404;SDS011;7801;48.124;11.590;2023-05-20T00:46:21;1.00;;;1.00;;
15404;SDS011;7801;48.124;11.590;2023-05-20T00:48:48;1.53;;;1.53;;
15404;SDS011;7801;48.124;11.590;2023-05-20T00:51:16;0.93;;;0.93;;
15404;SDS011;7801;48.124;11.590;2023-05-20T00:53:42;1.00;;;1.00;;
15404;SDS011;7801;48.124;11.590;2023-05-20T00:56:08;4.33;;;2.00;;
15404;SDS011;7801;48.124;11.590;2023-05-20T00:58:34;0.90;;;0.90;;
15404;SDS011;7801;48.124;11.590;2023-05-20T01:01:01;1.33;;;1.33;;
15404;SDS011;7801;48.124;11.590;2023-05-20T01:03:28;1.83;;;1.73;;
15404;SDS011;7801;48.124;11.590;2023-05-20T01:05:53;1.20;;;1.20;;
15404;SDS011;7801;48.124;11.590;2023-05-20T01:08:19;1.33;;;1.33;;
15404;SDS011;7801;48.124;11.590;2023-05-20T01:10:45;1.47;;;1.37;;
15404;SDS011;7801;48.124;11.590;2023-05-20T01:13:16;1.13;;;1.13;;
15404;SDS011;7801;48.124;11.590;2023-05-20T01:15:45;2.03;;;1.93;;
15404;SDS011;7801;48.124;11.590;2023-05-20T01:18:14;1.97;;;1.87;;
15404;SDS011;7801;48.124;11.590;2023-05-20T01:20:45;1.37;;;1.37;;
15404;SDS011;7801;48.124;11.590;2023-05-20T01:23:13;1.30;;;1.30;;
15404;SDS011;7801;48.124;11.590;2023-05-20T01:25:39;1.87;;;1.77;;
15404;SDS011;7801;48.124;11.590;2023-05-20T01:28:06;2.00;;;1.90;;
15404;SDS011;7801;48.124;11.590;2023-05-20T01:30:34;1.97;;;1.87;;
15404;SDS011;7801;48.124;11.590;2023-05-20T01:33:07;1.40;;;1.40;;
15404;SDS011;7801;48.124;11.590;2023-05-20T01:35:36;1.73;;;1.63;;
15404;SDS011;7801;48.124;11.590;2023-05-20T01:38:05;2.00;;;1.90;;
15404;SDS011;7801;48.124;11.590;2023-05-20T01:40:31;1.83;;;1.73;;
15404;SDS011;7801;48.124;11.590;2023-05-20T01:43:00;1.30;;;1.30;;
15404;SDS011;7801;48.124;11.590;2023-05-20T01:45:27;1.57;;;1.47;;
15404;SDS011;7801;48.124;11.590;2023-05-20T01:47:52;1.57;;;1.47;;
15404;SDS011;7801;48.124;11.590;2023-05-20T01:50:17;1.50;;;1.50;;
15404;SDS011;7801;48.124;11.590;2023-05-20T01:52:44;2.53;;;2.43;;
15404;SDS011;7801;48.124;11.590;2023-05-20T01:55:12;1.20;;;1.20;;
15404;SDS011;7801;48.124;11.590;2023-05-20T01:57:38;2.13;;;2.03;;
15404;SDS011;7801;48.124;11.590;2023-05-20T02:00:03;1.50;;;1.40;;
15404;SDS011;7801;48.124;11.590;2023-05-20T02:02:30;1.43;;;1.40;;
15404;SDS011;7801;48.124;11.590;2023-05-20T02:04:55;1.70;;;1.70;;
15404;SDS011;7801;48.124;11.590;2023-05-20T02:07:20;1.33;;;1.33;;
15404;SDS011;7801;48.124;11.590;2023-05-20T02:09:46;1.57;;;1.53;;
15404;SDS011;7801;48.124;11.590;2023-05-20T02:12:11;1.30;;;1.30;;
15404;SDS011;7801;48.124;11.590;2023-05-20T02:14:44;2.37;;;2.17;;
15404;SDS011;7801;48.124;11.590;2023-05-20T02:17:10;2.23;;;2.13;;
15404;SDS011;7801;48.124;11.590;2023-05-20T02:19:38;1.70;;;1.70;;
15404;SDS011;7801;48.124;11.590;2023-05-20T02:22:05;2.00;;;1.90;;
15404;SDS011;7801;48.124;11.590;2023-05-20T02:24:30;2.93;;;2.23;;
15404;SDS011;7801;48.124;11.590;2023-05-20T02:26:57;2.20;;;1.53;;
15404;SDS011;7801;48.124;11.590;2023-05-20T02:29:24;1.67;;;1.57;;
15404;SDS011;7801;48.124;11.590;2023-05-20T02:31:52;1.63;;;1.53;;
15404;SDS011;7801;48.124;11.590;2023-05-20T02:34:19;1.63;;;1.53;;
15404;SDS011;7801;48.124;11.590;2023-05-20T02:36:44;1.27;;;1.27;;
15404;SDS011;7801;48.124;11.590;2023-05-20T02:39:10;1.60;;;1.50;;
15404;SDS011;7801;48.124;11.590;2023-05-20T02:41:36;1.93;;;1.83;;
15404;SDS011;7801;48.124;11.590;2023-05-20T02:44:01;1.77;;;1.67;;
15404;SDS011;7801;48.124;11.590;2023-05-20T02:46:27;14.33;;;3.07;;
15404;SDS011;7801;48.124;11.590;2023-05-20T02:48:52;2.17;;;1.97;;
15404;SDS011;7801;48.124;11.590;2023-05-20T02:51:17;1.93;;;1.83;;
15404;SDS011;7801;48.124;11.590;2023-05-20T02:53:44;4.33;;;2.60;;
15404;SDS011;7801;48.124;11.590;2023-05-20T02:56:12;1.70;;;1.70;;
15404;SDS011;7801;48.124;11.590;2023-05-20T02:58:37;1.80;;;1.70;;
15404;SDS011;7801;48.124;11.590;2023-05-20T03:01:03;1.67;;;1.67;;
15404;SDS011;7801;48.124;11.590;2023-05-20T03:03:28;1.50;;;1.50;;
15404;SDS011;7801;48.124;11.590;2023-05-20T03:05:55;2.03;;;1.93;;
15404;SDS011;7801;48.124;11.590;2023-05-20T03:08:21;1.73;;;1.63;;
15404;SDS011;7801;48.124;11.590;2023-05-20T03:10:47;2.23;;;2.13;;
15404;SDS011;7801;48.124;11.590;2023-05-20T03:13:13;1.40;;;1.30;;
15404;SDS011;7801;48.124;11.590;2023-05-20T03:15:39;2.87;;;2.73;;
15404;SDS011;7801;48.124;11.590;2023-05-20T03:18:06;2.50;;;2.30;;
15404;SDS011;7801;48.124;11.590;2023-05-20T03:20:35;8.67;;;2.97;;
15404;SDS011;7801;48.124;11.590;2023-05-20T03:23:04;2.00;;;1.90;;
15404;SDS011;7801;48.124;11.590;2023-05-20T03:25:30;2.90;;;2.73;;
15404;SDS011;7801;48.124;11.590;2023-05-20T03:27:55;2.47;;;2.33;;
15404;SDS011;7801;48.124;11.590;2023-05-20T03:30:24;3.60;;;2.47;;
15404;SDS011;7801;48.124;11.590;2023-05-20T03:32:51;3.03;;;2.50;;
15404;SDS011;7801;48.124;11.590;2023-05-20T03:35:19;5.27;;;2.67;;
15404;SDS011;7801;48.124;11.590;2023-05-20T03:37:46;2.80;;;2.63;;
15404;SDS011;7801;48.124;11.590;2023-05-20T03:40:11;2.67;;;2.57;;
15404;SDS011;7801;48.124;11.590;2023-05-20T03:42:39;2.80;;;2.67;;
15404;SDS011;7801;48.124;11.590;2023-05-20T03:45:05;2.30;;;2.20;;
15404;SDS011;7801;48.124;11.590;2023-05-20T03:47:31;3.37;;;3.17;;
15404;SDS011;7801;48.124;11.590;2023-05-20T03:49:57;3.27;;;3.07;;
15404;SDS011;7801;48.124;11.590;2023-05-20T03:52:24;6.90;;;3.67;;
15404;SDS011;7801;48.124;11.590;2023-05-20T03:54:50;3.30;;;3.00;;
15404;SDS011;7801;48.124;11.590;2023-05-20T03:57:15;3.40;;;3.20;;
15404;SDS011;7801;48.124;11.590;2023-05-20T03:59:40;3.37;;;3.07;;
15404;SDS011;7801;48.124;11.590;2023-05-20T04:02:07;3.30;;;3.10;;
15404;SDS011;7801;48.124;11.590;2023-05-20T04:04:33;3.20;;;3.00;;
15404;SDS011;7801;48.124;11.590;2023-05-20T04:06:58;2.77;;;2.67;;
15404;SDS011;7801;48.124;11.590;2023-05-20T04:09:30;4.87;;;3.77;;
15404;SDS011;7801;48.124;11.590;2023-05-20T04:11:56;3.70;;;3.40;;
15404;SDS011;7801;48.124;11.590;2023-05-20T04:14:21;7.93;;;3.97;;
15404;SDS011;7801;48.124;11.590;2023-05-20T04:16:46;2.63;;;2.53;;
15404;SDS011;7801;48.124;11.590;2023-05-20T04:19:14;4.00;;;3.67;;
15404;SDS011;7801;48.124;11.590;2023-05-20T04:21:41;4.00;;;3.70;;
15404;SDS011;7801;48.124;11.590;2023-05-20T04:24:07;3.13;;;2.93;;
15404;SDS011;7801;48.124;11.590;2023-05-20T04:26:32;4.40;;;4.20;;
15404;SDS011;7801;48.124;11.590;2023-05-20T04:28:57;3.30;;;3.10;;
15404;SDS011;7801;48.124;11.590;2023-05-20T04:31:25;4.27;;;3.93;;
15404;SDS011;7801;48.124;11.590;2023-05-20T04:33:51;3.50;;;3.40;;
15404;SDS011;7801;48.124;11.590;2023-05-20T04:36:17;4.57;;;3.53;;
15404;SDS011;7801;48.124;11.590;2023-05-20T04:38:44;3.53;;;3.33;;
15404;SDS011;7801;48.124;11.590;2023-05-20T04:41:09;4.73;;;3.47;;
15404;SDS011;7801;48.124;11.590;2023-05-20T04:43:35;3.57;;;3.40;;
15404;SDS011;7801;48.124;11.590;2023-05-20T04:46:03;3.43;;;3.33;;
15404;SDS011;7801;48.124;11.590;2023-05-20T04:48:32;4.03;;;3.73;;
15404;SDS011;7801;48.124;11.590;2023-05-20T04:50:59;5.30;;;4.90;;
15404;SDS011;7801;48.124;11.590;2023-05-20T04:53:25;3.00;;;2.80;;
15404;SDS011;7801;48.124;11.590;2023-05-20T04:55:53;4.83;;;4.47;;
15404;SDS011;7801;48.124;11.590;2023-05-20T04:58:20;4.17;;;3.67;;
15404;SDS011;7801;48.124;11.590;2023-05-20T05:00:50;3.53;;;3.33;;
15404;SDS011;7801;48.124;11.590;2023-05-20T05:03:17;3.10;;;2.97;;
15404;SDS011;7801;48.124;11.590;2023-05-20T05:05:42;13.30;;;4.53;;
15404;SDS011;7801;48.124;11.590;2023-05-20T05:08:08;4.80;;;3.73;;
15404;SDS011;7801;48.124;11.590;2023-05-20T05:10:37;3.17;;;3.07;;
15404;SDS011;7801;48.124;11.590;2023-05-20T05:13:03;4.30;;;4.10;;
15404;SDS011;7801;48.124;11.590;2023-05-20T05:15:29;4.53;;;4.23;;
15404;SDS011;7801;48.124;11.590;2023-05-20T05:17:55;4.27;;;3.97;;
15404;SDS011;7801;48.124;11.590;2023-05-20T05:20:20;6.50;;;4.30;;
15404;SDS011;7801;48.124;11.590;2023-05-20T05:22:45;4.77;;;4.37;;
15404;SDS011;7801;48.124;11.590;2023-05-20T05:25:12;5.20;;;4.80;;
15404;SDS011;7801;48.124;11.590;2023-05-20T05:27:38;6.00;;;5.40;;
15404;SDS011;7801;48.124;11.590;2023-05-20T05:30:04;4.53;;;4.23;;
15404;SDS011;7801;48.124;11.590;2023-05-20T05:32:31;5.83;;;4.87;;
15404;SDS011;7801;48.124;11.590;2023-05-20T05:34:57;4.70;;;4.47;;
15404;SDS011;7801;48.124;11.590;2023-05-20T05:37:23;8.10;;;5.63;;
15404;SDS011;7801;48.124;11.590;2023-05-20T05:39:49;5.47;;;4.80;;
15404;SDS011;7801;48.124;11.590;2023-05-20T05:42:15;3.70;;;3.50;;
15404;SDS011;7801;48.124;11.590;2023-05-20T05:44:40;4.87;;;4.40;;
15404;SDS011;7801;48.124;11.590;2023-05-20T05:47:06;4.17;;;3.90;;
15404;SDS011;7801;48.124;11.590;2023-05-20T05:49:32;3.87;;;3.67;;
15404;SDS011;7801;48.124;11.590;2023-05-20T05:51:59;5.20;;;4.70;;
15404;SDS011;7801;48.124;11.590;2023-05-20T05:54:27;3.60;;;3.33;;
15404;SDS011;7801;48.124;11.590;2023-05-20T05:56:53;4.73;;;4.33;;
15404;SDS011;7801;48.124;11.590;2023-05-20T05:59:20;8.50;;;5.67;;
15404;SDS011;7801;48.124;11.590;2023-05-20T06:01:46;5.50;;;5.10;;
15404;SDS011;7801;48.124;11.590;2023-05-20T06:04:11;5.40;;;5.00;;
15404;SDS011;7801;48.124;11.590;2023-05-20T06:06:36;5.03;;;4.60;;
15404;SDS011;7801;48.124;11.590;2023-05-20T06:09:02;4.07;;;3.80;;
15404;SDS011;7801;48.124;11.590;2023-05-20T06:11:28;5.40;;;5.00;;
15404;SDS011;7801;48.124;11.590;2023-05-20T06:13:53;6.80;;;6.17;;
15404;SDS011;7801;48.124;11.590;2023-05-20T06:16:19;5.80;;;5.30;;
15404;SDS011;7801;48.124;11.590;2023-05-20T06:18:44;4.67;;;4.27;;
15404;SDS011;7801;48.124;11.590;2023-05-20T06:21:10;3.33;;;2.80;;
15404;SDS011;7801;48.124;11.590;2023-05-20T06:23:36;5.40;;;4.47;;
15404;SDS011;7801;48.124;11.590;2023-05-20T06:26:02;4.43;;;4.13;;
15404;SDS011;7801;48.124;11.590;2023-05-20T06:28:29;5.53;;;5.03;;
15404;SDS011;7801;48.124;11.590;2023-05-20T06:30:55;5.27;;;4.87;;
15404;SDS011;7801;48.124;11.590;2023-05-20T06:33:24;4.00;;;3.80;;
15404;SDS011;7801;48.124;11.590;2023-05-20T06:35:51;4.93;;;4.00;;
15404;SDS011;7801;48.124;11.590;2023-05-20T06:38:20;5.60;;;5.07;;
15404;SDS011;7801;48.124;11.590;2023-05-20T06:40:46;5.23;;;4.93;;
15404;SDS011;7801;48.124;11.590;2023-05-20T06:43:13;6.63;;;5.00;;
15404;SDS011;7801;48.124;11.590;2023-05-20T06:45:40;5.90;;;4.67;;
15404;SDS011;7801;48.124;11.590;2023-05-20T06:48:06;4.63;;;4.40;;
15404;SDS011;7801;48.124;11.590;2023-05-20T06:50:31;3.73;;;3.53;;
15404;SDS011;7801;48.124;11.590;2023-05-20T06:52:57;5.27;;;4.97;;
15404;SDS011;7801;48.124;11.590;2023-05-20T06:55:23;4.80;;;4.50;;
15404;SDS011;7801;48.124;11.590;2023-05-20T06:57:48;3.93;;;3.63;;
15404;SDS011;7801;48.124;11.590;2023-05-20T07:00:14;5.17;;;3.57;;
15404;SDS011;7801;48.124;11.590;2023-05-20T07:02:40;3.77;;;3.57;;
15404;SDS011;7801;48.124;11.590;2023-05-20T07:05:06;3.77;;;3.57;;
15404;SDS011;7801;48.124;11.590;2023-05-20T07:07:32;4.43;;;4.07;;
15404;SDS011;7801;48.124;11.590;2023-05-20T07:09:58;5.27;;;4.87;;
15404;SDS011;7801;48.124;11.590;2023-05-20T07:12:23;4.83;;;4.43;;
15404;SDS011;7801;48.124;11.590;2023-05-20T07:14:49;4.73;;;4.37;;
15404;SDS011;7801;48.124;11.590;2023-05-20T07:17:14;5.23;;;4.83;;
15404;SDS011;7801;48.124;11.590;2023-05-20T07:19:40;5.13;;;4.77;;
15404;SDS011;7801;48.124;11.590;2023-05-20T07:22:05;6.57;;;5.87;;
15404;SDS011;7801;48.124;11.590;2023-05-20T07:24:30;6.27;;;5.83;;
15404;SDS011;7801;48.124;11.590;2023-05-20T07:26:56;5.00;;;4.63;;
15404;SDS011;7801;48.124;11.590;2023-05-20T07:29:21;7.23;;;5.33;;
15404;SDS011;7801;48.124;11.590;2023-05-20T07:31:46;4.37;;;4.10;;
15404;SDS011;7801;48.124;11.590;2023-05-20T07:34:12;5.00;;;4.63;;
15404;SDS011;7801;48.124;11.590;2023-05-20T07:36:37;6.30;;;4.80;;
15404;SDS011;7801;48.124;11.590;2023-05-20T07:39:03;5.67;;;5.03;;
15404;SDS011;7801;48.124;11.590;2023-05-20T07:41:28;4.37;;;4.00;;
15404;SDS011;7801;48.124;11.590;2023-05-20T07:43:53;6.20;;;5.60;;
15404;SDS011;7801;48.124;11.590;2023-05-20T07:46:19;5.70;;;5.30;;
15404;SDS011;7801;48.124;11.590;2023-05-20T07:48:45;5.07;;;4.77;;
15404;SDS011;7801;48.124;11.590;2023-05-20T07:51:11;4.23;;;3.93;;
15404;SDS011;7801;48.124;11.590;2023-05-20T07:53:36;4.80;;;4.40;;
15404;SDS011;7801;48.124;11.590;2023-05-20T07:56:02;4.00;;;3.77;;
15404;SDS011;7801;48.124;11.590;2023-05-20T07:58:31;5.07;;;4.57;;
15404;SDS011;7801;48.124;11.590;2023-05-20T08:00:58;4.20;;;3.90;;
15404;SDS011;7801;48.124;11.590;2023-05-20T08:03:23;4.50;;;4.27;;
15404;SDS011;7801;48.124;11.590;2023-05-20T08:05:48;4.10;;;3.80;;
15404;SDS011;7801;48.124;11.590;2023-05-20T08:08:14;4.10;;;3.80;;
15404;SDS011;7801;48.124;11.590;2023-05-20T08:10:40;4.20;;;4.00;;
15404;SDS011;7801;48.124;11.590;2023-05-20T08:13:05;4.63;;;4.33;;
15404;SDS011;7801;48.124;11.590;2023-05-20T08:15:31;4.47;;;4.07;;
15404;SDS011;7801;48.124;11.590;2023-05-20T08:17:56;3.67;;;3.47;;
15404;SDS011;7801;48.124;11.590;2023-05-20T08:20:21;3.30;;;3.10;;
15404;SDS011;7801;48.124;11.590;2023-05-20T08:22:47;3.47;;;3.20;;
15404;SDS011;7801;48.124;11.590;2023-05-20T08:25:12;4.37;;;3.97;;
15404;SDS011;7801;48.124;11.590;2023-05-20T08:27:38;4.03;;;3.73;;
15404;SDS011;7801;48.124;11.590;2023-05-20T08:30:04;4.23;;;3.93;;
15404;SDS011;7801;48.124;11.590;2023-05-20T08:32:33;7.83;;;4.07;;
15404;SDS011;7801;48.124;11.590;2023-05-20T08:34:59;4.33;;;3.17;;
15404;SDS011;7801;48.124;11.590;2023-05-20T08:37:26;3.87;;;3.67;;
15404;SDS011;7801;48.124;11.590;2023-05-20T08:39:52;4.23;;;4.03;;
15404;SDS011;7801;48.124;11.590;2023-05-20T08:42:24;3.90;;;3.53;;
15404;SDS011;7801;48.124;11.590;2023-05-20T08:44:51;3.73;;;3.43;;
15404;SDS011;7801;48.124;11.590;2023-05-20T08:47:20;2.00;;;2.00;;
15404;SDS011;7801;48.124;11.590;2023-05-20T08:49:47;3.70;;;3.40;;
15404;SDS011;7801;48.124;11.590;2023-05-20T08:52:13;2.60;;;2.50;;
15404;SDS011;7801;48.124;11.590;2023-05-20T08:54:45;3.10;;;3.00;;
15404;SDS011;7801;48.124;11.590;2023-05-20T08:57:13;4.17;;;3.37;;
15404;SDS011;7801;48.124;11.590;2023-05-20T08:59:42;2.87;;;2.77;;
15404;SDS011;7801;48.124;11.590;2023-05-20T09:02:09;1.90;;;1.87;;
15404;SDS011;7801;48.124;11.590;2023-05-20T09:04:35;3.17;;;2.97;;
15404;SDS011;7801;48.124;11.590;2023-05-20T09:07:00;3.23;;;3.03;;
15404;SDS011;7801;48.124;11.590;2023-05-20T09:09:26;3.03;;;2.87;;
15404;SDS011;7801;48.124;11.590;2023-05-20T09:11:51;2.77;;;2.53;;
15404;SDS011;7801;48.124;11.590;2023-05-20T09:14:17;1.67;;;1.57;;
15404;SDS011;7801;48.124;11.590;2023-05-20T09:16:42;1.77;;;1.67;;
15404;SDS011;7801;48.124;11.590;2023-05-20T09:19:08;1.93;;;1.83;;
15404;SDS011;7801;48.124;11.590;2023-05-20T09:21:34;2.17;;;2.07;;
15404;SDS011;7801;48.124;11.590;2023-05-20T09:24:03;2.37;;;2.20;;
15404;SDS011;7801;48.124;11.590;2023-05-20T09:26:31;3.37;;;3.10;;
15404;SDS011;7801;48.124;11.590;2023-05-20T09:28:59;3.20;;;2.90;;
15404;SDS011;7801;48.124;11.590;2023-05-20T09:31:25;1.60;;;1.50;;
15404;SDS011;7801;48.124;11.590;2023-05-20T09:33:52;1.97;;;1.87;;
15404;SDS011;7801;48.124;11.590;2023-05-20T09:36:18;1.73;;;1.63;;
15404;SDS011;7801;48.124;11.590;2023-05-20T09:38:45;1.17;;;1.17;;
15404;SDS011;7801;48.124;11.590;2023-05-20T09:41:12;1.57;;;1.00;;
15404;SDS011;7801;48.124;11.590;2023-05-20T09:43:39;1.17;;;1.17;;
15404;SDS011;7801;48.124;11.590;2023-05-20T09:46:06;0.93;;;0.93;;
15404;SDS011;7801;48.124;11.590;2023-05-20T09:48:36;1.30;;;1.20;;
15404;SDS011;7801;48.124;11.590;2023-05-20T09:51:03;1.67;;;1.57;;
15404;SDS011;7801;48.124;11.590;2023-05-20T09:53:31;1.80;;;1.70;;
15404;SDS011;7801;48.124;11.590;2023-05-20T09:55:57;0.87;;;0.87;;
15404;SDS011;7801;48.124;11.590;2023-05-20T09:58:23;1.77;;;1.67;;
15404;SDS011;7801;48.124;11.590;2023-05-20T10:00:49;1.30;;;1.30;;
15404;SDS011;7801;48.124;11.590;2023-05-20T10:03:15;1.17;;;1.17;;
15404;SDS011;7801;48.124;11.590;2023-05-20T10:05:44;1.20;;;1.20;;
15404;SDS011;7801;48.124;11.590;2023-05-20T10:21:35;1.57;;;1.57;;
15404;SDS011;7801;48.124;11.590;2023-05-20T10:24:05;1.00;;;1.00;;
15404;SDS011;7801;48.124;11.590;2023-05-20T10:26:38;0.90;;;0.90;;
15404;SDS011;7801;48.124;11.590;2023-05-20T10:29:17;1.03;;;1.03;;
15404;SDS011;7801;48.124;11.590;2023-05-20T10:31:49;1.17;;;1.17;;
15404;SDS011;7801;48.124;11.590;2023-05-20T10:34:20;1.17;;;1.07;;
15404;SDS011;7801;48.124;11.590;2023-05-20T10:39:29;0.70;;;0.70;;
15404;SDS011;7801;48.124;11.590;2023-05-20T10:42:05;1.00;;;1.00;;
15404;SDS011;7801;48.124;11.590;2023-05-20T10:44:41;1.43;;;1.27;;
15404;SDS011;7801;48.124;11.590;2023-05-20T10:47:08;1.03;;;1.03;;
15404;SDS011;7801;48.124;11.590;2023-05-20T10:49:33;0.53;;;0.53;;
15404;SDS011;7801;48.124;11.590;2023-05-20T10:52:02;1.10;;;1.10;;
15404;SDS011;7801;48.124;11.590;2023-05-20T10:54:28;0.30;;;0.30;;
15404;SDS011;7801;48.124;11.590;2023-05-20T10:56:53;0.53;;;0.53;;
15404;SDS011;7801;48.124;11.590;2023-05-20T10:59:19;0.43;;;0.43;;
15404;SDS011;7801;48.124;11.590;2023-05-20T11:01:48;1.90;;;1.30;;
15404;SDS011;7801;48.124;11.590;2023-05-20T11:04:14;1.40;;;1.40;;
15404;SDS011;7801;48.124;11.590;2023-05-20T11:06:48;0.40;;;0.40;;
15404;SDS011;7801;48.124;11.590;2023-05-20T11:09:15;1.07;;;1.07;;
15404;SDS011;7801;48.124;11.590;2023-05-20T11:11:40;0.60;;;0.60;;
15404;SDS011;7801;48.124;11.590;2023-05-20T11:14:06;0.90;;;0.90;;
15404;SDS011;7801;48.124;11.590;2023-05-20T11:16:37;0.77;;;0.77;;
15404;SDS011;7801;48.124;11.590;2023-05-20T11:19:03;0.77;;;0.77;;
15404;SDS011;7801;48.124;11.590;2023-05-20T11:21:28;1.60;;;1.50;;
15404;SDS011;7801;48.124;11.590;2023-05-20T11:23:53;0.97;;;0.97;;
15404;SDS011;7801;48.124;11.590;2023-05-20T11:26:19;1.07;;;1.00;;
15404;SDS011;7801;48.124;11.590;2023-05-20T11:28:45;0.53;;;0.53;;
15404;SDS011;7801;48.124;11.590;2023-05-20T11:31:11;0.50;;;0.50;;
15404;SDS011;7801;48.124;11.590;2023-05-20T11:33:40;0.77;;;0.77;;
15404;SDS011;7801;48.124;11.590;2023-05-20T11:36:07;1.00;;;1.00;;
15404;SDS011;7801;48.124;11.590;2023-05-20T11:38:34;0.60;;;0.60;;
15404;SDS011;7801;48.124;11.590;2023-05-20T11:40:59;0.43;;;0.43;;
15404;SDS011;7801;48.124;11.590;2023-05-20T11:43:24;1.10;;;1.10;;
15404;SDS011;7801;48.124;11.590;2023-05-20T11:45:53;0.77;;;0.77;;
15404;SDS011;7801;48.124;11.590;2023-05-20T11:48:20;0.50;;;0.50;;
15404;SDS011;7801;48.124;11.590;2023-05-20T11:50:46;0.70;;;0.70;;
15404;SDS011;7801;48.124;11.590;2023-05-20T11:53:19;0.80;;;0.80;;
15404;SDS011;7801;48.124;11.590;2023-05-20T11:58:23;1.03;;;1.03;;
15404;SDS011;7801;48.124;11.590;2023-05-20T12:00:54;0.77;;;0.77;;
15404;SDS011;7801;48.124;11.590;2023-05-20T12:03:20;0.90;;;0.90;;
15404;SDS011;7801;48.124;11.590;2023-05-20T12:05:45;1.30;;;1.27;;
15404;SDS011;7801;48.124;11.590;2023-05-20T12:08:12;1.23;;;1.23;;
15404;SDS011;7801;48.124;11.590;2023-05-20T12:10:38;0.47;;;0.47;;
15404;SDS011;7801;48.124;11.590;2023-05-20T12:13:03;1.30;;;1.20;;
15404;SDS011;7801;48.124;11.590;2023-05-20T12:15:32;0.90;;;0.90;;
15404;SDS011;7801;48.124;11.590;2023-05-20T12:17:59;0.63;;;0.63;;
15404;SDS011;7801;48.124;11.590;2023-05-20T12:20:25;0.87;;;0.87;;
15404;SDS011;7801;48.124;11.590;2023-05-20T12:22:50;0.87;;;0.87;;
15404;SDS011;7801;48.124;11.590;2023-05-20T12:25:16;3.13;;;2.93;;
15404;SDS011;7801;48.124;11.590;2023-05-20T12:27:43;1.70;;;1.60;;
15404;SDS011;7801;48.124;11.590;2023-05-20T12:30:15;1.00;;;1.00;;
15404;SDS011;7801;48.124;11.590;2023-05-20T12:32:42;0.40;;;0.40;;
15404;SDS011;7801;48.124;11.590;2023-05-20T12:35:09;0.80;;;0.80;;
15404;SDS011;7801;48.124;11.590;2023-05-20T12:37:38;0.70;;;0.70;;
15404;SDS011;7801;48.124;11.590;2023-05-20T12:40:05;0.90;;;0.90;;
15404;SDS011;7801;48.124;11.590;2023-05-20T12:42:33;1.93;;;1.03;;
15404;SDS011;7801;48.124;11.590;2023-05-20T12:45:08;0.70;;;0.70;;
15404;SDS011;7801;48.124;11.590;2023-05-20T12:47:34;1.00;;;1.00;;
15404;SDS011;7801;48.124;11.590;2023-05-20T12:50:00;1.80;;;0.97;;
15404;SDS011;7801;48.124;11.590;2023-05-20T12:52:26;1.10;;;1.10;;
15404;SDS011;7801;48.124;11.590;2023-05-20T12:54:55;1.07;;;1.07;;
15404;SDS011;7801;48.124;11.590;2023-05-20T12:57:21;1.00;;;1.00;;
15404;SDS011;7801;48.124;11.590;2023-05-20T12:59:47;0.80;;;0.80;;
15404;SDS011;7801;48.124;11.590;2023-05-20T13:02:15;1.27;;;1.10;;
15404;SDS011;7801;48.124;11.590;2023-05-20T13:04:40;1.13;;;1.13;;
15404;SDS011;7801;48.124;11.590;2023-05-20T13:07:06;0.67;;;0.67;;
15404;SDS011;7801;48.124;11.590;2023-05-20T13:09:31;1.17;;;1.07;;
15404;SDS011;7801;48.124;11.590;2023-05-20T13:11:57;1.87;;;1.77;;
15404;SDS011;7801;48.124;11.590;2023-05-20T13:14:22;0.93;;;0.93;;
15404;SDS011;7801;48.124;11.590;2023-05-20T13:16:48;1.87;;;1.77;;
15404;SDS011;7801;48.124;11.590;2023-05-20T13:19:18;1.67;;;1.57;;
15404;SDS011;7801;48.124;11.590;2023-05-20T13:21:43;1.60;;;1.50;;
15404;SDS011;7801;48.124;11.590;2023-05-20T13:24:09;1.27;;;1.27;;
15404;SDS011;7801;48.124;11.590;2023-05-20T13:26:34;2.70;;;2.47;;
15404;SDS011;7801;48.124;11.590;2023-05-20T13:28:59;1.40;;;1.40;;
15404;SDS011;7801;48.124;11.590;2023-05-20T13:31:25;1.50;;;1.50;;
15404;SDS011;7801;48.124;11.590;2023-05-20T13:33:50;2.10;;;2.00;;
15404;SDS011;7801;48.124;11.590;2023-05-20T13:36:17;1.77;;;1.67;;
15404;SDS011;7801;48.124;11.590;2023-05-20T13:38:42;2.40;;;1.17;;
15404;SDS011;7801;48.124;11.590;2023-05-20T13:41:08;1.23;;;1.23;;
15404;SDS011;7801;48.124;11.590;2023-05-20T13:43:33;1.83;;;1.73;;
15404;SDS011;7801;48.124;11.590;2023-05-20T13:45:58;1.60;;;1.53;;
15404;SDS011;7801;48.124;11.590;2023-05-20T13:48:23;1.37;;;1.37;;
15404;SDS011;7801;48.124;11.590;2023-05-20T13:50:49;0.60;;;0.60;;
15404;SDS011;7801;48.124;11.590;2023-05-20T13:53:14;2.10;;;2.00;;
15404;SDS011;7801;48.124;11.590;2023-05-20T13:55:39;1.37;;;1.37;;
15404;SDS011;7801;48.124;11.590;2023-05-20T13:58:06;1.70;;;1.63;;
15404;SDS011;7801;48.124;11.590;2023-05-20T14:00:36;1.87;;;1.77;;
15404;SDS011;7801;48.124;11.590;2023-05-20T14:03:02;16.03;;;2.10;;
15404;SDS011;7801;48.124;11.590;2023-05-20T14:05:33;2.47;;;2.27;;
15404;SDS011;7801;48.124;11.590;2023-05-20T14:07:59;1.50;;;1.50;;
15404;SDS011;7801;48.124;11.590;2023-05-20T14:10:25;2.30;;;2.07;;
15404;SDS011;7801;48.124;11.590;2023-05-20T14:12:56;4.53;;;1.73;;
15404;SDS011;7801;48.124;11.590;2023-05-20T14:15:26;1.73;;;1.73;;
15404;SDS011;7801;48.124;11.590;2023-05-20T14:17:54;1.37;;;1.37;;
15404;SDS011;7801;48.124;11.590;2023-05-20T14:20:20;1.67;;;1.57;;
15404;SDS011;7801;48.124;11.590;2023-05-20T14:22:45;2.20;;;2.10;;
15404;SDS011;7801;48.124;11.590;2023-05-20T14:25:10;2.00;;;1.90;;
15404;SDS011;7801;48.124;11.590;2023-05-20T14:27:36;1.70;;;1.60;;
15404;SDS011;7801;48.124;11.590;2023-05-20T14:30:01;1.20;;;1.20;;
15404;SDS011;7801;48.124;11.590;2023-05-20T14:32:27;2.07;;;1.97;;
15404;SDS011;7801;48.124;11.590;2023-05-20T14:34:53;1.80;;;1.80;;
15404;SDS011;7801;48.124;11.590;2023-05-20T14:37:18;2.80;;;2.60;;
15404;SDS011;7801;48.124;11.590;2023-05-20T14:39:44;1.50;;;1.40;;
15404;SDS011;7801;48.124;11.590;2023-05-20T14:42:09;1.80;;;1.70;;
15404;SDS011;7801;48.124;11.590;2023-05-20T14:44:35;7.20;;;5.23;;
15404;SDS011;7801;48.124;11.590;2023-05-20T14:47:01;2.20;;;2.10;;
15404;SDS011;7801;48.124;11.590;2023-05-20T14:49:26;1.97;;;1.93;;
15404;SDS011;7801;48.124;11.590;2023-05-20T14:51:52;2.73;;;2.43;;
15404;SDS011;7801;48.124;11.590;2023-05-20T14:54:17;2.00;;;1.90;;
15404;SDS011;7801;48.124;11.590;2023-05-20T14:56:48;1.30;;;1.30;;
15404;SDS011;7801;48.124;11.590;2023-05-20T14:59:14;3.70;;;2.63;;
15404;SDS011;7801;48.124;11.590;2023-05-20T15:01:39;1.93;;;1.87;;